Time;durP1;ratioP1;P1;durP2;ratioP2;P2;SDS_P1;SDS_P2;PMS_P1;PMS_P2;Temp;Humidity;BMP_temperature;BMP_pressure;BME280_temperature;BME280_humidity;BME280_pressure;Samples;Min_cycle;Max_cycle;Signal;HPM_P1;HPM_P2
2023/01/29 00:02:00;;;;;;;13.52;9.18;;;22.00;38.70;;;;;;6139870;28;80540;-64
2023/01/29 00:05:00;;;;;;;11.18;8.00;;;22.00;38.70;;;;;;6140053;28;80330;-64
2023/01/29 00:08:01;;;;;;;12.85;8.20;;;22.00;38.90;;;;;;6128249;28;83688;-65
2023/01/29 00:11:01;;;;;;;11.73;8.35;;;22.00;39.00;;;;;;6127626;28;80821;-65
2023/01/29 00:14:02;;;;;;;12.27;8.32;;;21.90;39.20;;;;;;6135630;28;80827;-66
2023/01/29 00:17:02;;;;;;;11.75;7.72;;;22.00;39.30;;;;;;6132508;28;81053;-65
2023/01/29 00:20:03;;;;;;;9.75;7.38;;;22.00;39.30;;;;;;6124814;28;80305;-65
2023/01/29 00:23:03;;;;;;;9.45;6.15;;;21.90;39.30;;;;;;6110541;28;80377;-65
2023/01/29 00:26:04;;;;;;;8.80;6.35;;;22.00;39.30;;;;;;6117879;28;81641;-65
2023/01/29 00:29:04;;;;;;;9.45;6.13;;;21.90;39.20;;;;;;6108252;28;81262;-62
2023/01/29 00:32:05;;;;;;;8.60;5.93;;;21.90;39.30;;;;;;6122729;28;83813;-62
2023/01/29 00:35:05;;;;;;;8.23;5.78;;;21.90;39.50;;;;;;6109259;28;80381;-62
2023/01/29 00:38:06;;;;;;;8.10;5.53;;;21.90;39.30;;;;;;6109773;28;81089;-63
2023/01/29 00:47:47;;;;;;;8.05;5.18;;;21.90;39.20;;;;;;6113081;28;80491;-63
2023/01/29 00:50:47;;;;;;;5.55;4.10;;;21.90;39.30;;;;;;6117238;28;81508;-49
2023/01/29 00:53:48;;;;;;;6.20;4.65;;;21.90;39.60;;;;;;6110352;28;81364;-46
2023/01/29 00:56:48;;;;;;;5.93;4.72;;;21.90;39.50;;;;;;6106871;28;80859;-48
2023/01/29 00:59:51;;;;;;;6.65;4.45;;;21.90;39.50;;;;;;6127711;28;83338;-47
2023/01/29 01:03:06;;;;;;;7.75;4.68;;;21.90;39.60;;;;;;6115423;28;80753;-48
2023/01/29 01:06:07;;;;;;;;;;;21.90;39.50;;;;;;6107049;28;85035;-46
2023/01/29 01:12:27;;;;;;;6.30;4.25;;;21.90;39.40;;;;;;6127350;28;81743;-47
2023/01/29 01:15:28;;;;;;;5.82;4.20;;;21.90;39.40;;;;;;6123634;28;80984;-47
2023/01/29 01:18:28;;;;;;;5.40;4.25;;;21.80;39.40;;;;;;6121898;28;83685;-48
2023/01/29 01:21:29;;;;;;;4.97;4.00;;;21.80;39.30;;;;;;6124769;28;82573;-47
2023/01/29 01:24:30;;;;;;;4.35;3.45;;;21.80;39.50;;;;;;6117613;28;83162;-47
2023/01/29 01:27:31;;;;;;;4.10;3.53;;;21.90;39.50;;;;;;6129267;28;83451;-48
2023/01/29 01:30:31;;;;;;;4.50;3.58;;;21.80;39.30;;;;;;6115112;28;81412;-45
2023/01/29 01:33:32;;;;;;;5.32;3.72;;;21.80;39.20;;;;;;6107985;28;80836;-47
2023/01/29 01:36:33;;;;;;;5.20;4.13;;;21.80;39.10;;;;;;6112238;28;80397;-47
2023/01/29 01:39:33;;;;;;;5.63;3.88;;;21.80;39.20;;;;;;6128756;28;80361;-47
2023/01/29 01:42:34;;;;;;;4.78;3.50;;;21.80;39.20;;;;;;6133258;28;80765;-47
2023/01/29 01:45:36;;;;;;;6.18;4.22;;;21.80;39.40;;;;;;6152364;28;83265;-49
2023/01/29 01:48:37;;;;;;;4.20;3.63;;;21.80;39.40;;;;;;6142040;28;81276;-48
2023/01/29 01:51:38;;;;;;;4.55;3.53;;;21.80;39.30;;;;;;6121316;28;80309;-50
2023/01/29 01:54:38;;;;;;;4.88;4.00;;;21.80;39.40;;;;;;6122444;28;80620;-45
2023/01/29 01:57:39;;;;;;;5.80;4.18;;;21.80;39.50;;;;;;6123547;28;80739;-45
2023/01/29 02:00:39;;;;;;;4.00;3.53;;;21.80;39.50;;;;;;6120426;28;83292;-48
2023/01/29 02:10:19;;;;;;;5.95;4.05;;;21.80;39.20;;;;;;6113054;28;80436;-46
2023/01/29 02:13:19;;;;;;;4.55;3.80;;;21.80;39.20;;;;;;6114056;28;81936;-46
2023/01/29 02:16:20;;;;;;;6.95;4.45;;;21.80;39.20;;;;;;6113979;28;81707;-47
2023/01/29 02:19:21;;;;;;;6.22;4.25;;;21.80;39.00;;;;;;6115761;28;80329;-45
2023/01/29 02:22:24;;;;;;;5.40;4.50;;;21.70;38.90;;;;;;6105236;28;80314;-68
2023/01/29 02:25:25;;;;;;;5.25;4.30;;;21.70;38.90;;;;;;6111069;28;82300;-63
2023/01/29 02:28:25;;;;;;;5.47;3.80;;;21.70;38.80;;;;;;6109287;28;80262;-63
2023/01/29 02:31:26;;;;;;;6.72;4.60;;;21.70;38.90;;;;;;6115496;28;80095;-62
2023/01/29 02:34:27;;;;;;;4.82;4.32;;;21.70;38.80;;;;;;6104420;28;80280;-63
2023/01/29 02:37:27;;;;;;;4.63;4.07;;;21.70;38.70;;;;;;6116488;28;82377;-62
2023/01/29 02:40:28;;;;;;;7.57;4.43;;;21.70;38.70;;;;;;6106924;28;80515;-62
2023/01/29 02:43:29;;;;;;;5.38;4.13;;;21.70;38.80;;;;;;6104744;28;80961;-63
2023/01/29 02:46:30;;;;;;;6.30;4.25;;;21.70;38.90;;;;;;6132901;28;83212;-62
2023/01/29 02:49:31;;;;;;;4.95;4.30;;;21.70;38.80;;;;;;6136809;28;80811;-62
2023/01/29 02:52:31;;;;;;;5.25;4.15;;;21.70;38.90;;;;;;6123477;28;81124;-63
2023/01/29 02:55:32;;;;;;;4.60;3.97;;;21.70;38.90;;;;;;6125509;28;83407;-62
2023/01/29 02:58:33;;;;;;;5.00;3.90;;;21.70;38.80;;;;;;6107159;28;83087;-62
2023/01/29 03:01:33;;;;;;;6.45;4.25;;;21.70;39.00;;;;;;6133563;28;83315;-49
2023/01/29 03:04:34;;;;;;;5.82;4.50;;;21.70;38.90;;;;;;6126279;28;83250;-46
2023/01/29 03:07:43;;;;;;;5.65;4.45;;;21.70;38.80;;;;;;6107976;28;80987;-49
2023/01/29 03:10:47;;;;;;;5.97;3.90;;;21.70;38.90;;;;;;6109148;28;81911;-47
2023/01/29 03:13:47;;;;;;;5.65;4.15;;;21.70;38.80;;;;;;6126179;28;80357;-47
2023/01/29 03:16:48;;;;;;;5.93;4.03;;;21.70;38.70;;;;;;6115480;28;83739;-47
2023/01/29 03:19:49;;;;;;;5.25;4.15;;;21.70;38.80;;;;;;6130349;28;80449;-48
2023/01/29 03:22:56;;;;;;;4.97;4.05;;;21.70;38.70;;;;;;6145221;28;83013;-47
2023/01/29 03:32:37;;;;;;;4.60;4.05;;;21.70;38.60;;;;;;6119073;28;80440;-46
2023/01/29 03:35:38;;;;;;;5.63;4.50;;;21.70;38.70;;;;;;6117603;28;80719;-48
2023/01/29 03:38:39;;;;;;;5.45;4.28;;;21.70;38.80;;;;;;6124390;28;82161;-46
2023/01/29 03:41:40;;;;;;;6.20;4.50;;;21.60;38.80;;;;;;6125395;28;83209;-48
2023/01/29 03:44:41;;;;;;;6.28;4.57;;;21.60;38.70;;;;;;6127011;28;81601;-46
2023/01/29 03:47:45;;;;;;;5.70;4.63;;;21.70;38.80;;;;;;6153273;28;82817;-49
2023/01/29 03:50:46;;;;;;;6.88;4.88;;;21.70;38.80;;;;;;6104215;28;81374;-47
2023/01/29 03:53:46;;;;;;;6.45;4.38;;;21.70;38.80;;;;;;6114803;28;83223;-50
2023/01/29 03:56:47;;;;;;;6.70;5.10;;;21.60;38.80;;;;;;6125676;28;84828;-50
2023/01/29 03:59:48;;;;;;;7.45;4.88;;;21.70;38.80;;;;;;6127623;28;83288;-50
2023/01/29 04:03:17;;;;;;;7.25;5.63;;;21.60;38.70;;;;;;6103638;28;86070;-47
2023/01/29 04:06:20;;;;;;;7.43;5.40;;;21.70;38.90;;;;;;6124431;28;81688;-48
2023/01/29 04:09:39;;;;;;;8.52;5.80;;;21.70;38.80;;;;;;6124908;28;83280;-48
2023/01/29 04:12:40;;;;;;;6.20;4.88;;;21.60;38.90;;;;;;6108881;28;81329;-48
2023/01/29 04:15:41;;;;;;;6.22;4.57;;;21.70;39.30;;;;;;6115483;28;80892;-48
2023/01/29 04:18:42;;;;;;;6.93;5.38;;;21.70;40.10;;;;;;6117021;28;80742;-48
2023/01/29 04:21:44;;;;;;;7.57;5.85;;;21.70;38.80;;;;;;6134113;28;82387;-44
2023/01/29 04:24:44;;;;;;;8.20;5.60;;;21.80;38.70;;;;;;6106052;28;81525;-48
2023/01/29 04:27:45;;;;;;;8.93;6.38;;;21.90;38.10;;;;;;6118185;28;80544;-51
2023/01/29 04:30:45;;;;;;;8.93;6.32;;;21.90;37.80;;;;;;6108712;28;80570;-47
2023/01/29 04:33:46;;;;;;;8.55;6.68;;;22.00;37.10;;;;;;6109010;28;82375;-47
2023/01/29 04:36:47;;;;;;;10.68;7.07;;;22.00;37.00;;;;;;6118413;28;82491;-48
2023/01/29 04:39:47;;;;;;;9.43;6.97;;;22.10;36.70;;;;;;6119733;28;81405;-53
2023/01/29 04:42:48;;;;;;;9.43;7.22;;;22.10;36.50;;;;;;6111747;28;81414;-49
2023/01/29 04:45:48;;;;;;;8.90;6.72;;;22.20;36.40;;;;;;6113690;28;80952;-49
2023/01/29 04:48:49;;;;;;;10.00;7.03;;;22.20;36.10;;;;;;6109957;28;80307;-48
2023/01/29 04:51:49;;;;;;;6.90;5.55;;;22.30;36.20;;;;;;6113419;28;80480;-71
2023/01/29 04:54:50;;;;;;;8.48;6.00;;;22.30;36.20;;;;;;6120452;28;81266;-73
2023/01/29 04:57:51;;;;;;;9.88;6.50;;;22.30;36.50;;;;;;6125563;28;80484;-77
2023/01/29 05:00:52;;;;;;;8.82;6.13;;;22.30;36.20;;;;;;6131557;28;81341;-78
2023/01/29 05:03:52;;;;;;;7.78;6.07;;;22.30;35.90;;;;;;6117806;28;80662;-77
2023/01/29 05:06:53;;;;;;;8.57;6.18;;;22.40;36.20;;;;;;6119750;28;80405;-75
2023/01/29 05:09:53;;;;;;;8.27;6.32;;;22.40;36.30;;;;;;6120975;28;80942;-72
2023/01/29 05:12:54;;;;;;;10.93;6.85;;;22.40;36.10;;;;;;6122489;28;80446;-68
2023/01/29 05:15:54;;;;;;;8.70;6.35;;;22.40;35.90;;;;;;6123951;28;81702;-71
2023/01/29 05:18:55;;;;;;;7.75;5.82;;;22.40;35.60;;;;;;6139329;28;81426;-74
2023/01/29 05:21:55;;;;;;;7.07;5.72;;;22.40;35.50;;;;;;6127544;28;81100;-72
2023/01/29 05:24:56;;;;;;;8.07;5.63;;;22.50;35.50;;;;;;6107267;28;81294;-70
2023/01/29 05:28:03;;;;;;;7.60;5.80;;;22.50;35.80;;;;;;6122006;28;81000;-48
2023/01/29 05:31:04;;;;;;;7.18;5.63;;;22.50;36.20;;;;;;6119883;28;80922;-46
2023/01/29 05:34:04;;;;;;;6.60;5.63;;;22.50;35.90;;;;;;6126011;28;80318;-47
2023/01/29 05:37:05;;;;;;;8.30;5.43;;;22.50;36.10;;;;;;6120409;28;81891;-48
2023/01/29 05:40:07;;;;;;;10.18;5.43;;;22.50;36.30;;;;;;6123793;28;80160;-51
2023/01/29 05:43:08;;;;;;;9.32;5.53;;;22.50;36.30;;;;;;6136139;28;80681;-51
2023/01/29 05:46:09;;;;;;;8.32;5.25;;;22.60;36.10;;;;;;6125773;28;81073;-71
2023/01/29 05:49:09;;;;;;;8.88;5.50;;;22.60;35.90;;;;;;6129384;28;80426;-69
2023/01/29 05:52:10;;;;;;;8.40;5.60;;;22.60;35.90;;;;;;6124112;28;80095;-69
2023/01/29 05:55:10;;;;;;;7.72;5.32;;;22.60;35.70;;;;;;6109514;28;81491;-70
2023/01/29 05:58:11;;;;;;;8.25;5.45;;;22.60;35.40;;;;;;6114496;28;81058;-71
2023/01/29 06:01:11;;;;;;;11.38;6.22;;;22.60;35.20;;;;;;6117089;28;82681;-72
2023/01/29 06:04:12;;;;;;;8.23;6.05;;;22.60;35.20;;;;;;6125471;28;80282;-69
2023/01/29 06:07:12;;;;;;;16.50;7.78;;;22.70;35.20;;;;;;6125289;28;80432;-68
2023/01/29 06:10:13;;;;;;;17.77;8.23;;;22.60;36.30;;;;;;6115009;28;80520;-70
2023/01/29 06:13:13;;;;;;;16.73;9.05;;;22.70;36.80;;;;;;6129232;28;80822;-69
2023/01/29 06:16:14;;;;;;;21.83;9.63;;;22.60;37.20;;;;;;6137158;28;80657;-73
2023/01/29 06:19:16;;;;;;;22.40;10.48;;;22.60;37.40;;;;;;6105345;28;80497;-71
2023/01/29 06:22:17;;;;;;;21.30;9.93;;;22.60;37.30;;;;;;6104318;28;83257;-74
2023/01/29 06:25:18;;;;;;;20.20;10.48;;;22.60;37.20;;;;;;6104756;28;82799;-71
2023/01/29 06:28:18;;;;;;;22.23;9.45;;;22.50;37.00;;;;;;6108952;28;83381;-75
2023/01/29 06:31:19;;;;;;;24.50;9.88;;;22.50;36.90;;;;;;6102233;28;83658;-76
2023/01/29 06:34:19;;;;;;;18.80;9.32;;;22.50;36.90;;;;;;6107574;28;80853;-73
2023/01/29 06:37:20;;;;;;;18.88;9.20;;;22.50;36.90;;;;;;6103117;28;80755;-71
2023/01/29 06:40:20;;;;;;;17.27;8.27;;;22.40;36.70;;;;;;6118297;28;80785;-48
2023/01/29 06:43:21;;;;;;;15.02;7.68;;;22.40;36.70;;;;;;6112310;28;80319;-47
2023/01/29 06:46:21;;;;;;;16.90;7.95;;;22.40;36.30;;;;;;6104437;28;80543;-47
2023/01/29 06:49:22;;;;;;;16.02;7.97;;;22.30;36.10;;;;;;6103668;28;80652;-48
2023/01/29 06:52:24;;;;;;;14.60;7.07;;;22.30;36.40;;;;;;6103894;28;80930;-50
2023/01/29 06:55:24;;;;;;;15.95;6.82;;;22.30;36.80;;;;;;6119598;28;80302;-47
2023/01/29 06:58:25;;;;;;;19.50;7.35;;;22.30;36.50;;;;;;6118275;28;80901;-50
2023/01/29 07:01:25;;;;;;;16.55;6.50;;;22.30;36.50;;;;;;6113485;28;82309;-48
2023/01/29 07:04:26;;;;;;;13.48;7.40;;;22.20;36.70;;;;;;6098147;28;80509;-48
2023/01/29 07:07:26;;;;;;;15.45;6.95;;;22.20;36.90;;;;;;6094181;28;81713;-46
2023/01/29 07:10:27;;;;;;;14.13;6.88;;;22.20;37.10;;;;;;6106951;28;81808;-54
2023/01/29 07:13:27;;;;;;;15.93;6.22;;;22.20;37.10;;;;;;6102850;28;80951;-54
2023/01/29 07:16:28;;;;;;;13.90;6.70;;;22.10;37.20;;;;;;6107149;28;80777;-47
2023/01/29 07:19:29;;;;;;;10.45;5.70;;;22.10;37.20;;;;;;6109746;28;80837;-48
2023/01/29 07:22:29;;;;;;;12.73;5.60;;;22.10;37.40;;;;;;6128022;28;81623;-51
2023/01/29 07:25:30;;;;;;;15.35;6.15;;;22.00;36.70;;;;;;6101712;28;81746;-57
2023/01/29 07:28:30;;;;;;;11.65;5.72;;;22.10;36.80;;;;;;6107475;28;80573;-48
2023/01/29 07:31:31;;;;;;;9.07;4.85;;;22.00;36.90;;;;;;6104758;28;80696;-49
2023/01/29 07:34:31;;;;;;;8.57;5.55;;;22.00;36.80;;;;;;6106164;28;81383;-50
2023/01/29 07:37:32;;;;;;;7.30;4.72;;;22.00;36.70;;;;;;6112110;28;84757;-48
2023/01/29 07:40:32;;;;;;;13.20;6.80;;;22.00;36.70;;;;;;6113253;28;81488;-51
2023/01/29 07:43:33;;;;;;;12.35;6.95;;;21.90;36.80;;;;;;6112601;28;84018;-49
2023/01/29 07:46:33;;;;;;;13.38;6.72;;;21.90;36.70;;;;;;6104193;28;81631;-54
2023/01/29 07:49:34;;;;;;;12.73;6.47;;;22.00;36.80;;;;;;6103778;28;80478;-50
2023/01/29 07:52:34;;;;;;;13.90;6.82;;;21.90;36.90;;;;;;6102034;28;80580;-52
2023/01/29 07:55:35;;;;;;;11.15;6.47;;;21.90;37.70;;;;;;6104858;28;81132;-50
2023/01/29 07:58:35;;;;;;;19.33;7.85;;;21.90;38.30;;;;;;6096368;28;80593;-50
2023/01/29 08:01:36;;;;;;;15.80;7.38;;;21.90;38.50;;;;;;6100755;28;81035;-56
2023/01/29 08:04:36;;;;;;;18.90;6.80;;;21.90;38.50;;;;;;6101457;28;81778;-55
2023/01/29 08:07:37;;;;;;;15.50;5.68;;;21.90;38.50;;;;;;6108862;28;80565;-49
2023/01/29 08:10:37;;;;;;;18.65;6.28;;;22.00;38.40;;;;;;6101134;28;80855;-51
2023/01/29 08:13:38;;;;;;;16.00;5.30;;;22.00;38.40;;;;;;6106816;28;81652;-49
2023/01/29 08:16:38;;;;;;;9.52;4.95;;;22.00;38.50;;;;;;6116326;28;82761;-65
2023/01/29 08:19:39;;;;;;;38.88;6.65;;;22.00;38.10;;;;;;6115829;28;80422;-60
2023/01/29 08:22:39;;;;;;;16.08;5.80;;;22.00;38.00;;;;;;6115031;28;80502;-63
2023/01/29 08:25:40;;;;;;;23.92;5.38;;;22.00;38.00;;;;;;6119002;28;82498;-61
2023/01/29 08:28:40;;;;;;;24.70;5.28;;;22.00;37.90;;;;;;6112470;28;82655;-66
2023/01/29 08:31:41;;;;;;;18.90;4.85;;;22.00;37.80;;;;;;6121659;28;81329;-50
2023/01/29 08:34:41;;;;;;;13.23;4.80;;;22.10;37.60;;;;;;6120339;28;81397;-60
2023/01/29 08:37:42;;;;;;;9.48;3.90;;;22.10;36.80;;;;;;6117355;28;80383;-66
2023/01/29 08:40:42;;;;;;;26.88;4.68;;;22.20;36.60;;;;;;6117044;28;80257;-58
2023/01/29 08:43:43;;;;;;;8.10;4.22;;;22.20;36.50;;;;;;6096037;28;81189;-55
2023/01/29 08:46:43;;;;;;;11.93;4.13;;;22.30;36.30;;;;;;6106276;28;82530;-56
2023/01/29 08:49:44;;;;;;;5.03;3.47;;;22.30;36.00;;;;;;6104841;28;80229;-51
2023/01/29 08:52:44;;;;;;;5.60;3.10;;;22.40;35.80;;;;;;6106187;28;80402;-49
2023/01/29 08:55:45;;;;;;;8.27;3.35;;;22.50;35.40;;;;;;6118872;28;81112;-48
2023/01/29 08:58:45;;;;;;;7.57;3.10;;;22.50;35.20;;;;;;6108684;28;80617;-48
2023/01/29 09:01:46;;;;;;;11.93;3.50;;;22.60;35.00;;;;;;6117250;28;82412;-47
2023/01/29 09:04:46;;;;;;;9.60;3.90;;;22.70;35.50;;;;;;6113547;28;80927;-60
2023/01/29 09:07:47;;;;;;;7.13;3.28;;;22.80;36.00;;;;;;6109023;28;80606;-66
2023/01/29 09:10:47;;;;;;;5.00;3.30;;;22.80;35.40;;;;;;6110509;28;81823;-68
2023/01/29 09:13:48;;;;;;;6.00;3.72;;;22.80;34.70;;;;;;6111818;28;80313;-68
2023/01/29 09:16:48;;;;;;;9.20;4.25;;;22.50;32.20;;;;;;6126985;28;80460;-71
2023/01/29 09:19:51;;;;;;;6.35;4.60;;;22.20;30.70;;;;;;6123460;28;80850;-73
2023/01/29 09:22:52;;;;;;;8.15;4.80;;;22.00;30.20;;;;;;6121745;28;80872;-70
2023/01/29 09:25:53;;;;;;;6.18;3.95;;;21.90;29.90;;;;;;6121028;28;82309;-72
2023/01/29 09:28:53;;;;;;;7.20;4.05;;;21.80;29.90;;;;;;6120614;28;80838;-71
2023/01/29 09:31:54;;;;;;;6.63;3.50;;;21.70;29.50;;;;;;6127568;28;80676;-73
2023/01/29 09:34:54;;;;;;;8.52;4.20;;;21.70;29.40;;;;;;6120748;28;80141;-72
2023/01/29 09:37:55;;;;;;;8.05;4.28;;;21.60;29.30;;;;;;6132457;28;83333;-73
2023/01/29 09:40:56;;;;;;;5.32;3.88;;;21.60;29.20;;;;;;6137139;28;81683;-72
2023/01/29 09:43:56;;;;;;;5.78;3.75;;;21.50;29.00;;;;;;6130173;28;80445;-73
2023/01/29 09:46:59;;;;;;;7.32;4.35;;;21.40;29.00;;;;;;6133842;28;80396;-71
2023/01/29 09:49:59;;;;;;;8.75;4.50;;;21.20;29.00;;;;;;6107426;28;86290;-71
2023/01/29 09:53:00;;;;;;;7.88;4.50;;;21.00;29.20;;;;;;6121811;28;81613;-72
2023/01/29 09:56:00;;;;;;;6.63;4.05;;;20.90;29.10;;;;;;6129210;28;80378;-71
2023/01/29 09:59:01;;;;;;;8.30;4.38;;;20.80;29.30;;;;;;6126140;28;80221;-71
2023/01/29 10:02:01;;;;;;;7.75;4.25;;;20.70;29.30;;;;;;6106403;28;80720;-72
2023/01/29 10:05:02;;;;;;;7.07;4.05;;;20.60;29.50;;;;;;6107089;28;81725;-71
2023/01/29 10:08:02;;;;;;;6.88;4.18;;;20.60;29.50;;;;;;6120087;28;80168;-73
2023/01/29 10:11:03;;;;;;;6.68;4.10;;;20.50;29.50;;;;;;6117655;28;80584;-73
2023/01/29 10:14:04;;;;;;;6.13;4.20;;;20.40;29.50;;;;;;6123167;28;80850;-73
2023/01/29 10:17:04;;;;;;;13.65;4.43;;;20.30;29.50;;;;;;6112095;28;80778;-72
2023/01/29 10:20:05;;;;;;;7.90;4.90;;;20.20;29.50;;;;;;6127157;28;80976;-72
2023/01/29 10:23:05;;;;;;;8.52;4.65;;;20.20;29.60;;;;;;6130441;28;87159;-72
2023/01/29 10:26:06;;;;;;;7.13;4.88;;;20.10;29.60;;;;;;6118209;28;81562;-71
2023/01/29 10:29:06;;;;;;;10.13;5.53;;;20.00;29.70;;;;;;6117495;28;80284;-72
2023/01/29 10:32:07;;;;;;;12.48;5.13;;;20.00;29.70;;;;;;6106961;28;81650;-72
2023/01/29 10:35:07;;;;;;;9.35;5.15;;;19.90;29.60;;;;;;6106182;28;80145;-71
2023/01/29 10:38:08;;;;;;;6.35;4.85;;;19.90;29.70;;;;;;6109005;28;80521;-68
2023/01/29 10:41:08;;;;;;;7.95;4.90;;;19.80;29.80;;;;;;6109009;28;80445;-72
2023/01/29 10:44:09;;;;;;;9.90;6.25;;;19.70;29.70;;;;;;6117602;28;81254;-71
2023/01/29 10:47:09;;;;;;;8.90;6.13;;;19.70;29.90;;;;;;6128813;28;80948;-70
2023/01/29 10:50:10;;;;;;;9.88;6.28;;;19.70;29.90;;;;;;6107583;28;80651;-71
2023/01/29 10:53:10;;;;;;;8.60;5.95;;;19.60;29.90;;;;;;6120074;28;82793;-72
2023/01/29 10:56:11;;;;;;;14.52;6.50;;;19.60;30.00;;;;;;6129526;28;81248;-72
2023/01/29 10:59:12;;;;;;;12.10;6.40;;;19.50;30.00;;;;;;6135497;28;80453;-72
2023/01/29 11:02:12;;;;;;;9.88;6.13;;;19.50;30.00;;;;;;6128364;28;80633;-73
2023/01/29 11:05:13;;;;;;;11.18;7.18;;;19.50;30.00;;;;;;6129595;28;80264;-72
2023/01/29 11:08:13;;;;;;;10.77;6.82;;;19.50;30.00;;;;;;6137374;28;80369;-69
2023/01/29 11:11:14;;;;;;;13.52;6.45;;;19.30;30.50;;;;;;6140672;28;80588;-65
2023/01/29 11:14:14;;;;;;;10.27;6.38;;;19.60;31.60;;;;;;6128250;28;80695;-68
2023/01/29 11:17:15;;;;;;;13.70;6.43;;;19.80;32.90;;;;;;6119330;28;80427;-63
2023/01/29 11:20:16;;;;;;;10.20;6.53;;;20.00;34.10;;;;;;6089726;28;84182;-59
2023/01/29 11:23:16;;;;;;;8.88;5.55;;;20.20;34.60;;;;;;6098590;28;84998;-60
2023/01/29 11:26:17;;;;;;;6.80;5.00;;;20.50;36.50;;;;;;6096450;28;83891;-60
2023/01/29 11:29:17;;;;;;;10.05;5.78;;;20.60;37.30;;;;;;6095138;28;82769;-60
2023/01/29 11:32:18;;;;;;;9.88;5.72;;;20.70;39.00;;;;;;6098945;28;80423;-60
2023/01/29 11:35:18;;;;;;;6.47;4.70;;;20.80;38.00;;;;;;6114193;28;83127;-61
2023/01/29 11:38:19;;;;;;;7.65;4.85;;;20.90;38.90;;;;;;6120148;28;80303;-60
2023/01/29 11:41:21;;;;;;;10.05;4.68;;;20.90;38.90;;;;;;6116628;28;80149;-61
2023/01/29 11:44:21;;;;;;;6.88;4.88;;;21.00;39.00;;;;;;6117335;28;80837;-61
2023/01/29 11:47:25;;;;;;;9.13;5.13;;;21.00;39.00;;;;;;6105916;28;80924;-60
2023/01/29 11:50:26;;;;;;;8.38;4.72;;;21.10;38.70;;;;;;6123677;28;80537;-60
2023/01/29 11:53:26;;;;;;;7.95;4.60;;;21.10;38.40;;;;;;6118321;28;82364;-67
2023/01/29 11:56:27;;;;;;;8.63;4.65;;;21.10;38.10;;;;;;6116993;28;82016;-66
2023/01/29 11:59:27;;;;;;;5.85;4.43;;;21.20;38.10;;;;;;6132081;28;81959;-68
2023/01/29 12:02:30;;;;;;;6.70;4.55;;;21.40;37.40;;;;;;6141415;28;80490;-67
2023/01/29 12:05:30;;;;;;;9.10;4.35;;;21.50;37.20;;;;;;6118282;28;81728;-68
2023/01/29 12:08:31;;;;;;;9.23;4.20;;;21.50;36.60;;;;;;6122808;28;82130;-67
2023/01/29 12:11:31;;;;;;;6.47;4.28;;;21.50;36.40;;;;;;6144755;28;80430;-72
2023/01/29 12:14:33;;;;;;;7.35;4.75;;;21.60;36.20;;;;;;6130990;28;80790;-59
2023/01/29 12:17:33;;;;;;;7.47;3.90;;;21.60;36.30;;;;;;6108292;28;81177;-61
2023/01/29 12:20:34;;;;;;;7.32;4.28;;;21.70;35.90;;;;;;6116854;28;84024;-63
2023/01/29 12:23:35;;;;;;;9.15;4.55;;;21.70;35.50;;;;;;6118113;28;81172;-66
2023/01/29 12:26:35;;;;;;;7.50;4.68;;;21.70;35.80;;;;;;6107661;28;81968;-65
2023/01/29 12:29:39;;;;;;;7.05;4.82;;;21.80;35.50;;;;;;6123593;28;80519;-44
2023/01/29 12:32:39;;;;;;;6.05;4.65;;;21.90;35.70;;;;;;6104645;28;80312;-46
2023/01/29 12:35:40;;;;;;;9.07;5.38;;;22.00;35.70;;;;;;6115284;28;82282;-47
2023/01/29 12:38:40;;;;;;;11.23;4.75;;;22.00;35.80;;;;;;6108397;28;87348;-46
2023/01/29 12:41:41;;;;;;;7.72;5.07;;;22.10;35.70;;;;;;6116606;28;80875;-48
2023/01/29 12:44:42;;;;;;;7.50;4.88;;;22.20;35.70;;;;;;6108470;28;81438;-58
2023/01/29 12:47:43;;;;;;;7.85;4.88;;;22.20;35.50;;;;;;6102148;28;80266;-47
2023/01/29 12:50:45;;;;;;;10.93;5.05;;;22.20;35.10;;;;;;6109933;28;80793;-48
2023/01/29 12:53:45;;;;;;;12.65;4.95;;;22.20;34.80;;;;;;6115163;28;80682;-49
2023/01/29 12:56:46;;;;;;;6.78;4.78;;;22.30;34.30;;;;;;6111166;28;81405;-48
2023/01/29 12:59:46;;;;;;;10.95;4.93;;;22.30;34.00;;;;;;6122870;28;80378;-49
2023/01/29 13:02:47;;;;;;;8.88;4.43;;;22.30;33.70;;;;;;6114536;28;81529;-46
2023/01/29 13:05:47;;;;;;;13.35;5.20;;;22.30;33.60;;;;;;6114475;28;80767;-46
2023/01/29 13:08:52;;;;;;;7.43;4.85;;;22.30;33.30;;;;;;6112148;28;80534;-47
2023/01/29 13:11:53;;;;;;;7.85;5.00;;;22.30;33.10;;;;;;6116667;28;81936;-47
2023/01/29 13:14:53;;;;;;;6.95;5.10;;;22.30;32.90;;;;;;6106474;28;80479;-50
2023/01/29 13:17:54;;;;;;;9.50;5.70;;;22.30;32.80;;;;;;6102452;28;82744;-47
2023/01/29 13:20:54;;;;;;;12.02;5.40;;;22.30;32.70;;;;;;6109685;28;80607;-47
2023/01/29 13:23:55;;;;;;;7.38;5.43;;;22.30;32.60;;;;;;6102592;28;80971;-48
2023/01/29 13:26:55;;;;;;;9.00;5.57;;;22.30;32.40;;;;;;6099094;28;83536;-50
2023/01/29 13:29:56;;;;;;;8.57;5.50;;;22.30;32.40;;;;;;6104128;28;80297;-47
2023/01/29 13:33:07;;;;;;;8.25;5.50;;;22.30;32.30;;;;;;6120894;28;80343;-47
2023/01/29 13:36:07;;;;;;;8.10;5.10;;;22.30;32.30;;;;;;6127639;28;85153;-47
2023/01/29 13:39:08;;;;;;;9.70;5.35;;;22.30;32.30;;;;;;6140935;28;81557;-54
2023/01/29 13:42:08;;;;;;;9.82;6.00;;;22.30;32.30;;;;;;6118732;28;80175;-64
2023/01/29 13:45:09;;;;;;;9.10;5.32;;;22.30;32.20;;;;;;6120144;28;80563;-65
2023/01/29 13:48:10;;;;;;;9.10;5.47;;;22.30;32.20;;;;;;6146001;28;80141;-64
2023/01/29 13:51:14;;;;;;;11.77;5.75;;;22.30;32.10;;;;;;6117986;28;80602;-65
2023/01/29 13:54:15;;;;;;;6.65;5.00;;;22.30;32.00;;;;;;6139621;28;80684;-66
2023/01/29 13:57:15;;;;;;;8.02;5.28;;;22.30;32.70;;;;;;6128514;28;80597;-66
2023/01/29 14:00:16;;;;;;;8.20;5.40;;;22.30;32.00;;;;;;6122692;28;80677;-65
2023/01/29 14:03:17;;;;;;;9.25;5.32;;;22.30;32.00;;;;;;6108389;28;80441;-61
2023/01/29 14:06:17;;;;;;;11.30;5.70;;;22.30;31.90;;;;;;6103894;28;80793;-62
2023/01/29 14:09:18;;;;;;;7.90;5.50;;;22.30;31.90;;;;;;6116713;28;81980;-61
2023/01/29 14:12:18;;;;;;;8.60;5.90;;;22.30;31.90;;;;;;6110230;28;80350;-62
2023/01/29 14:15:19;;;;;;;9.10;5.50;;;22.30;31.90;;;;;;6104419;28;81613;-60
2023/01/29 14:18:19;;;;;;;9.85;5.65;;;22.30;31.90;;;;;;6115001;28;80716;-61
2023/01/29 14:21:20;;;;;;;9.00;5.93;;;22.30;31.80;;;;;;6111417;28;80805;-60
2023/01/29 14:24:21;;;;;;;11.20;6.05;;;22.40;31.80;;;;;;6120842;28;80981;-60
2023/01/29 14:27:21;;;;;;;9.70;5.60;;;22.30;31.80;;;;;;6120064;28;80652;-61
2023/01/29 14:30:22;;;;;;;8.88;5.93;;;22.30;31.60;;;;;;6106054;28;80970;-60
2023/01/29 14:33:22;;;;;;;9.63;5.38;;;22.30;31.50;;;;;;6105145;28;81281;-60
2023/01/29 14:36:25;;;;;;;9.10;5.68;;;22.40;31.50;;;;;;6104947;28;81429;-60
2023/01/29 14:39:25;;;;;;;9.73;5.90;;;22.40;31.40;;;;;;6120746;28;80897;-60
2023/01/29 14:42:26;;;;;;;9.45;5.93;;;22.40;31.40;;;;;;6121420;28;81413;-60
2023/01/29 14:45:26;;;;;;;12.60;6.85;;;22.40;31.30;;;;;;6126410;28;80760;-62
2023/01/29 14:48:27;;;;;;;9.57;5.95;;;22.50;31.60;;;;;;6125528;28;81616;-60
2023/01/29 14:51:29;;;;;;;10.85;6.55;;;22.50;31.60;;;;;;6116664;28;80848;-64
2023/01/29 14:54:32;;;;;;;12.52;7.25;;;22.50;32.10;;;;;;6103884;28;81568;-60
2023/01/29 14:57:33;;;;;;;16.67;6.80;;;22.50;32.50;;;;;;6104840;28;83444;-63
2023/01/29 15:00:33;;;;;;;17.40;7.68;;;22.50;32.40;;;;;;6111635;28;81475;-60
2023/01/29 15:03:34;;;;;;;25.00;8.40;;;22.50;32.30;;;;;;6122813;28;80842;-60
2023/01/29 15:06:34;;;;;;;23.23;8.27;;;22.50;32.20;;;;;;6123954;28;80782;-61
2023/01/29 15:09:35;;;;;;;20.95;8.43;;;22.50;32.10;;;;;;6113091;28;81076;-61
2023/01/29 15:12:36;;;;;;;20.25;8.38;;;22.50;31.90;;;;;;6120424;28;82409;-65
2023/01/29 15:15:36;;;;;;;21.20;8.55;;;22.50;31.80;;;;;;6118705;28;81780;-63
2023/01/29 15:18:38;;;;;;;19.83;7.93;;;22.50;31.70;;;;;;6131777;28;81645;-63
2023/01/29 15:21:39;;;;;;;16.05;7.70;;;22.50;31.70;;;;;;6120642;28;80622;-64
2023/01/29 15:24:39;;;;;;;20.60;8.27;;;22.50;31.50;;;;;;6103461;28;81000;-63
2023/01/29 15:27:40;;;;;;;15.55;7.88;;;22.50;31.60;;;;;;6098380;28;80364;-64
2023/01/29 15:30:42;;;;;;;16.40;8.13;;;22.50;31.40;;;;;;6105264;28;81904;-64
2023/01/29 15:33:42;;;;;;;17.33;7.53;;;22.50;31.60;;;;;;6101542;28;80933;-63
2023/01/29 15:36:43;;;;;;;15.88;8.05;;;22.50;31.20;;;;;;6103351;28;82080;-62
2023/01/29 15:39:43;;;;;;;16.50;8.52;;;22.50;31.00;;;;;;6101192;28;81100;-63
2023/01/29 15:42:45;;;;;;;16.45;7.63;;;22.50;31.00;;;;;;6129146;28;80751;-63
2023/01/29 15:45:46;;;;;;;16.73;8.65;;;22.50;30.80;;;;;;6130819;28;81483;-60
2023/01/29 15:48:47;;;;;;;18.15;8.43;;;22.50;30.80;;;;;;6117293;28;81069;-60
2023/01/29 15:51:48;;;;;;;16.15;7.85;;;22.50;31.20;;;;;;6128158;28;80611;-61
2023/01/29 15:54:48;;;;;;;16.75;8.57;;;22.50;31.50;;;;;;6115932;28;80883;-61
2023/01/29 15:57:49;;;;;;;16.48;8.32;;;22.60;31.80;;;;;;6114761;28;81576;-59
2023/01/29 16:00:49;;;;;;;15.90;8.65;;;22.60;32.80;;;;;;6111662;28;80204;-58